createdAt,value
2023-03-22T00:00:43.924Z,68.68
2023-03-22T00:03:21.597Z,68.68
2023-03-22T00:05:58.223Z,68.58
2023-03-22T00:08:26.816Z,68.72
2023-03-22T00:10:55.925Z,68.78
2023-03-22T00:13:24.956Z,68.77
2023-03-22T00:15:54.634Z,68.91
2023-03-22T00:18:23.488Z,68.93
2023-03-22T00:20:56.952Z,68.96
2023-03-22T00:23:26.816Z,68.88
2023-03-22T00:25:55.764Z,68.94
2023-03-22T00:28:24.809Z,68.63
2023-03-22T00:30:55.556Z,68.51
2023-03-22T00:33:26.797Z,68.63
2023-03-22T00:35:57.746Z,68.85
2023-03-22T00:38:42.069Z,68.81
2023-03-22T00:41:16.402Z,68.65
2023-03-22T00:43:47.341Z,68.67
2023-03-22T00:46:17.555Z,68.76
2023-03-22T00:48:46.160Z,68.91
2023-03-22T00:51:16.171Z,69.07
2023-03-22T00:53:45.307Z,68.95
2023-03-22T00:56:15.015Z,68.99
2023-03-22T00:58:47.491Z,68.99
2023-03-22T01:01:16.647Z,68.94
2023-03-22T01:03:49.192Z,69.08
2023-03-22T01:06:18.629Z,69.28
2023-03-22T01:08:50.180Z,69.43
2023-03-22T01:11:19.238Z,69.34
2023-03-22T01:13:48.327Z,69.31
2023-03-22T01:16:18.100Z,69.09
2023-03-22T01:18:48.759Z,69.05
2023-03-22T01:21:19.033Z,69.08
2023-03-22T01:23:48.231Z,69.10
2023-03-22T01:26:17.240Z,69.10
2023-03-22T01:28:45.743Z,69.08
2023-03-22T01:31:14.743Z,69.02
2023-03-22T01:33:43.401Z,68.94
2023-03-22T01:36:13.072Z,69.03
2023-03-22T01:38:41.695Z,68.96
2023-03-22T01:41:12.430Z,69.03
2023-03-22T01:43:44.501Z,69.16
2023-03-22T01:46:13.840Z,69.12
2023-03-22T01:48:46.583Z,69.25
2023-03-22T01:51:20.016Z,69.11
2023-03-22T01:54:17.139Z,69.17
2023-03-22T01:56:46.974Z,69.23
2023-03-22T01:59:23.878Z,69.42
2023-03-22T02:02:05.529Z,69.35
2023-03-22T02:04:38.608Z,69.42
2023-03-22T02:07:14.763Z,69.37
2023-03-22T02:09:45.454Z,69.43
2023-03-22T02:12:28.541Z,69.24
2023-03-22T02:15:09.602Z,69.28
2023-03-22T02:18:16.472Z,69.37
2023-03-22T02:21:28.986Z,69.40
2023-03-22T02:24:28.832Z,69.34
2023-03-22T02:27:22.315Z,69.33
2023-03-22T02:30:07.031Z,69.30
2023-03-22T02:33:06.981Z,69.61
2023-03-22T02:35:49.393Z,69.68
2023-03-22T02:38:36.268Z,69.73
2023-03-22T02:41:13.249Z,69.89
2023-03-22T02:43:52.037Z,69.80
2023-03-22T02:46:35.450Z,69.74
2023-03-22T02:49:13.110Z,69.73
2023-03-22T02:51:49.337Z,69.79
2023-03-22T02:54:34.576Z,69.86
2023-03-22T02:57:09.923Z,70.03
2023-03-22T02:59:45.724Z,70.13
2023-03-22T03:02:19.499Z,70.04
2023-03-22T03:04:55.509Z,70.04
2023-03-22T03:07:30.492Z,70.12
2023-03-22T03:09:59.462Z,69.97
2023-03-22T03:12:29.747Z,69.88
2023-03-22T03:14:58.563Z,69.89
2023-03-22T03:17:45.933Z,69.99
2023-03-22T03:20:29.671Z,70.00
2023-03-22T03:23:15.322Z,69.92
2023-03-22T03:25:53.434Z,69.92
2023-03-22T03:28:37.627Z,69.96
2023-03-22T03:31:16.887Z,69.94
2023-03-22T03:33:55.684Z,70.09
2023-03-22T03:36:27.198Z,70.16
2023-03-22T03:38:58.177Z,70.13
2023-03-22T03:41:30.380Z,70.11
2023-03-22T03:44:01.841Z,70.13
2023-03-22T03:46:34.533Z,70.10
2023-03-22T03:49:05.239Z,70.00
2023-03-22T03:51:47.279Z,70.00
2023-03-22T03:54:18.375Z,70.06
2023-03-22T03:56:47.641Z,70.16
2023-03-22T03:59:21.249Z,70.13
2023-03-22T04:01:57.613Z,70.15
2023-03-22T04:04:30.556Z,70.19
2023-03-22T04:07:06.952Z,70.13
2023-03-22T04:09:39.740Z,70.19
2023-03-22T04:12:22.024Z,70.36
2023-03-22T04:15:16.463Z,70.38
2023-03-22T04:17:48.187Z,70.45
2023-03-22T04:20:20.309Z,70.30
2023-03-22T04:22:52.133Z,70.49
2023-03-22T04:25:22.270Z,70.47
2023-03-22T04:28:00.662Z,70.47
2023-03-22T04:30:30.263Z,70.41
2023-03-22T04:33:46.320Z,70.48
2023-03-22T04:36:41.405Z,70.60
2023-03-22T04:39:48.693Z,70.48
2023-03-22T04:42:38.711Z,70.41
2023-03-22T04:45:19.033Z,70.53
2023-03-22T04:48:00.855Z,70.57
2023-03-22T04:50:37.076Z,70.55
2023-03-22T04:53:06.410Z,70.61
2023-03-22T04:55:35.194Z,70.66
2023-03-22T04:58:04.707Z,70.67
2023-03-22T05:00:33.414Z,70.58
2023-03-22T05:03:03.546Z,70.62
2023-03-22T05:05:36.635Z,70.56
2023-03-22T05:08:08.514Z,70.61
2023-03-22T05:10:41.470Z,70.67
2023-03-22T05:13:16.308Z,70.71
2023-03-22T05:15:48.634Z,70.77
2023-03-22T05:18:33.907Z,70.79
2023-03-22T05:21:06.183Z,70.76
2023-03-22T05:23:35.213Z,70.75
2023-03-22T05:26:08.062Z,70.97
2023-03-22T05:28:38.030Z,70.89
2023-03-22T05:31:14.039Z,71.06
2023-03-22T05:33:47.276Z,71.15
2023-03-22T05:36:19.926Z,71.07
2023-03-22T05:39:07.513Z,71.07
2023-03-22T05:41:37.128Z,71.16
2023-03-22T05:44:06.965Z,71.19
2023-03-22T05:47:10.880Z,71.18
2023-03-22T05:50:02.453Z,71.35
2023-03-22T05:52:32.845Z,71.31
2023-03-22T05:55:22.668Z,71.26
2023-03-22T05:57:56.105Z,71.46
2023-03-22T06:00:31.355Z,71.62
2023-03-22T06:03:38.954Z,71.66
2023-03-22T06:06:16.803Z,71.96
2023-03-22T06:08:57.831Z,72.40
2023-03-22T06:11:35.540Z,73.31
2023-03-22T06:14:06.197Z,73.42
2023-03-22T06:16:48.621Z,72.97
2023-03-22T06:19:17.309Z,72.63
2023-03-22T06:21:47.574Z,72.85
2023-03-22T06:24:16.545Z,73.06
2023-03-22T06:26:45.562Z,73.18
2023-03-22T06:29:15.175Z,73.08
2023-03-22T06:31:44.438Z,72.65
2023-03-22T06:34:14.240Z,71.77
2023-03-22T06:36:44.733Z,71.39
2023-03-22T06:39:16.235Z,70.90
2023-03-22T06:41:46.249Z,70.60
2023-03-22T06:44:18.040Z,70.64
2023-03-22T06:46:53.951Z,70.64
2023-03-22T06:49:40.734Z,70.69
2023-03-22T06:52:11.054Z,70.77
2023-03-22T06:54:39.902Z,71.03
2023-03-22T06:57:08.766Z,71.08
2023-03-22T06:59:38.959Z,70.88
2023-03-22T07:02:10.626Z,70.81
2023-03-22T07:04:39.239Z,70.83
2023-03-22T07:07:08.129Z,70.88
2023-03-22T07:09:36.918Z,70.67
2023-03-22T07:12:06.554Z,70.76
2023-03-22T07:14:35.820Z,70.70
2023-03-22T07:17:32.621Z,70.78
2023-03-22T07:20:01.562Z,70.71
2023-03-22T07:22:30.351Z,70.94
2023-03-22T07:25:01.586Z,70.95
2023-03-22T07:27:31.404Z,70.82
2023-03-22T07:30:00.292Z,70.93
2023-03-22T07:32:29.962Z,70.94
2023-03-22T07:35:07.171Z,71.03
2023-03-22T07:37:36.085Z,71.03
2023-03-22T07:40:09.062Z,71.34
2023-03-22T07:42:38.436Z,71.46
2023-03-22T07:45:30.076Z,71.56
2023-03-22T07:48:38.547Z,71.32
2023-03-22T07:51:27.182Z,71.30
2023-03-22T07:53:55.703Z,71.30
2023-03-22T07:56:26.712Z,71.15
2023-03-22T07:58:55.860Z,71.06
2023-03-22T08:01:28.768Z,71.12
2023-03-22T08:04:22.028Z,70.88
2023-03-22T08:07:05.312Z,70.89
2023-03-22T08:09:34.138Z,70.61
2023-03-22T08:12:03.496Z,70.65
2023-03-22T08:14:36.835Z,70.57
2023-03-22T08:17:08.797Z,70.56
2023-03-22T08:19:37.332Z,70.41
2023-03-22T08:22:08.006Z,70.40
2023-03-22T08:25:03.086Z,70.29
2023-03-22T08:27:37.656Z,70.12
2023-03-22T08:30:09.271Z,70.14
2023-03-22T08:32:38.204Z,70.16
2023-03-22T08:35:08.937Z,70.26
2023-03-22T08:37:39.076Z,70.16
2023-03-22T08:40:10.843Z,70.16
2023-03-22T08:42:53.816Z,70.08
2023-03-22T08:45:22.633Z,70.07
2023-03-22T08:47:59.399Z,69.93
2023-03-22T08:50:29.345Z,69.85
2023-03-22T08:53:07.229Z,70.02
2023-03-22T08:55:39.383Z,70.02
2023-03-22T08:58:12.064Z,69.90
2023-03-22T09:01:03.890Z,69.83
2023-03-22T09:03:38.629Z,69.71
2023-03-22T09:06:09.932Z,69.94
2023-03-22T09:08:41.435Z,69.69
2023-03-22T09:11:17.944Z,69.81
2023-03-22T09:13:48.835Z,69.80
2023-03-22T09:16:18.864Z,69.73
2023-03-22T09:18:48.203Z,69.78
2023-03-22T09:21:18.849Z,69.77
2023-03-22T09:24:01.358Z,69.78
2023-03-22T09:26:38.788Z,69.86
2023-03-22T09:29:07.831Z,69.94
2023-03-22T09:31:42.988Z,69.93
2023-03-22T09:34:26.617Z,69.69
2023-03-22T09:37:02.257Z,69.53
2023-03-22T09:39:33.703Z,69.55
2023-03-22T09:42:07.551Z,69.43
2023-03-22T09:44:41.303Z,69.40
2023-03-22T09:47:18.145Z,69.49
2023-03-22T09:49:53.643Z,69.75
2023-03-22T09:52:23.853Z,69.66
2023-03-22T09:54:53.360Z,69.75
2023-03-22T09:57:29.332Z,69.74
2023-03-22T10:00:11.158Z,69.72
2023-03-22T10:02:53.504Z,69.65
2023-03-22T10:05:30.264Z,69.69
2023-03-22T10:08:23.278Z,69.52
2023-03-22T10:10:52.484Z,69.49
2023-03-22T10:13:31.899Z,69.48
2023-03-22T10:16:06.798Z,69.22
2023-03-22T10:18:38.194Z,69.24
2023-03-22T10:21:09.945Z,69.39
2023-03-22T10:23:44.231Z,69.30
2023-03-22T10:26:21.471Z,69.32
2023-03-22T10:28:59.303Z,69.30
2023-03-22T10:31:39.951Z,69.28
2023-03-22T10:34:19.105Z,69.28
2023-03-22T10:36:49.922Z,69.40
2023-03-22T10:39:30.031Z,69.31
2023-03-22T10:42:02.356Z,69.38
2023-03-22T10:44:38.337Z,69.27
2023-03-22T10:47:10.391Z,69.41
2023-03-22T10:49:44.550Z,69.17
2023-03-22T10:52:31.227Z,69.14
2023-03-22T10:55:03.147Z,69.05
2023-03-22T10:57:33.161Z,68.91
2023-03-22T11:00:12.460Z,68.92
2023-03-22T11:02:50.899Z,68.88
2023-03-22T11:05:26.100Z,68.99
2023-03-22T11:07:57.986Z,68.84
2023-03-22T11:10:32.135Z,68.97
2023-03-22T11:13:17.783Z,68.85
2023-03-22T11:15:55.013Z,68.76
2023-03-22T11:18:31.783Z,68.89
2023-03-22T11:21:09.697Z,68.91
2023-03-22T11:23:42.194Z,68.77
2023-03-22T11:26:14.387Z,68.79
2023-03-22T11:28:47.053Z,68.64
2023-03-22T11:31:19.032Z,68.74
2023-03-22T11:33:56.530Z,68.85
2023-03-22T11:36:28.191Z,68.75
2023-03-22T11:39:02.599Z,68.49
2023-03-22T11:41:42.387Z,68.51
2023-03-22T11:44:16.170Z,68.63
2023-03-22T11:46:53.834Z,68.56
2023-03-22T11:49:27.145Z,68.76
2023-03-22T11:52:07.778Z,68.79
2023-03-22T11:54:38.653Z,68.61
2023-03-22T11:57:16.481Z,68.62
2023-03-22T11:59:54.666Z,68.51
2023-03-22T12:02:28.398Z,68.35
2023-03-22T12:05:03.963Z,68.38
2023-03-22T12:07:35.286Z,68.55
2023-03-22T12:10:12.328Z,68.52
2023-03-22T12:12:50.528Z,68.59
2023-03-22T12:15:25.810Z,68.60
2023-03-22T12:17:58.777Z,68.72
2023-03-22T12:20:38.046Z,68.68
2023-03-22T12:23:15.358Z,68.51
2023-03-22T12:25:51.580Z,68.50
2023-03-22T12:28:28.194Z,68.38
2023-03-22T12:30:59.205Z,68.32
2023-03-22T12:33:30.577Z,67.90
2023-03-22T12:36:02.593Z,67.87
2023-03-22T12:38:39.935Z,67.99
2023-03-22T12:41:14.871Z,68.02
2023-03-22T12:43:52.727Z,67.97
2023-03-22T12:46:48.137Z,68.01
2023-03-22T12:49:36.800Z,68.08
2023-03-22T12:52:15.464Z,67.98
2023-03-22T12:54:47.454Z,67.84
2023-03-22T12:57:16.869Z,67.59
2023-03-22T12:59:53.059Z,67.73
2023-03-22T13:02:30.596Z,67.45
2023-03-22T13:05:01.479Z,67.42
2023-03-22T13:08:03.510Z,67.50
2023-03-22T13:11:00.704Z,67.60
2023-03-22T13:13:58.570Z,67.52
2023-03-22T13:16:52.297Z,67.61
2023-03-22T13:19:36.456Z,67.46
2023-03-22T13:22:21.212Z,67.61
2023-03-22T13:25:05.814Z,67.55
2023-03-22T13:27:37.802Z,67.70
2023-03-22T13:30:23.952Z,67.54
2023-03-22T13:33:02.871Z,67.36
2023-03-22T13:35:43.987Z,67.24
2023-03-22T13:38:21.800Z,66.93
2023-03-22T13:40:59.644Z,67.14
2023-03-22T13:43:32.690Z,66.95
2023-03-22T13:46:10.748Z,67.01
2023-03-22T13:48:53.217Z,66.99
2023-03-22T13:51:32.122Z,67.07
2023-03-22T13:54:07.005Z,66.89
2023-03-22T13:56:52.821Z,67.15
2023-03-22T13:59:29.362Z,67.06
2023-03-22T14:02:10.330Z,67.30
2023-03-22T14:04:43.949Z,66.92
2023-03-22T14:07:23.064Z,67.18
2023-03-22T14:09:56.139Z,66.94
2023-03-22T14:12:31.736Z,66.74
2023-03-22T14:15:04.650Z,66.70
2023-03-22T14:17:39.376Z,66.47
2023-03-22T14:20:15.319Z,66.60
